METAR Data
IDs: Format: Raw Decoded Include TAF

Data at: 1534 UTC 24 Aug 2019

PAFM 241456Z AUTO 30004KT 10SM CLR 03/M01 A2983 RMK AO2 SLP115 T00281011 51008
PAFM 241256Z AUTO 36004KT 10SM CLR 06/M03 A2981 RMK AO2 SLP108 T00561028
PAFM 241156Z AUTO 32003KT 10SM CLR 04/M03 A2980 RMK AO2 SLP107 T00441028 10094 20044 51011
PAFM 241056Z AUTO VRB06KT 10SM CLR 06/M03 A2979 RMK AO2 SLP102 T00611028
PAFM 240956Z AUTO 03006KT 10SM CLR 07/M03 A2979 RMK AO2 SLP102 T00671028
PAFM 240856Z AUTO 36009G20KT 10SM CLR 08/M03 A2977 RMK AO2 PRESRR SLP096 T00831033 53007
PAFM 240756Z AUTO 36014G24KT 10SM CLR 09/M03 A2975 RMK AO2 SLP088 T00891033 401220044
PAFM 240656Z AUTO 36018G24KT 10SM CLR 09/M03 A2973 RMK AO2 PK WND 01028/0618 SLP084 T00891028
PAFM 240556Z AUTO 01011G15KT 10SM CLR 09/M02 A2975 RMK AO2 SLP088 T00891022 10122 20089 51012
PAFM 240456Z AUTO 35007KT 310V030 10SM CLR 10/M02 A2975 RMK AO2 SLP087 T01001017
PAFM 240356Z AUTO 02013G21KT 10SM CLR 11/M03 A2972 RMK AO2 SLP078 T01111033
PAFM 240256Z AUTO 36017G25KT 10SM CLR 12/M02 A2971 RMK AO2 PK WND 36027/0241 SLP076 T01171022 57001
PAFM 240056Z AUTO 36017G23KT 10SM CLR 12/M03 A2971 RMK AO2 PK WND 36027/0032 SLP076 T01221033
PAFM 232356Z AUTO 36018G23KT 10SM CLR 12/M03 A2972 RMK AO2 PK WND 35027/2344 SLP078 T01171028 10122 20072 55000
PAFM 232156Z AUTO 01016G24KT 10SM CLR 11/M02 A2971 RMK AO2 SLP077 T01111022
PAFM 231956Z AUTO 02014G19KT 10SM CLR 11/01 A2970 RMK AO2 SLP072 T01060006
PAFM 231856Z AUTO 01010G18KT 10SM BKN034 10/02 A2970 RMK AO2 SLP071 T01000017
PAFM 231756Z AUTO 29005KT 10SM FEW036 07/02 A2970 RMK AO2 SLP070 T00720022 10083 20044 53003
PAFM 231656Z AUTO 26006KT 10SM CLR 05/02 A2969 RMK AO2 SLP068 T00500017
PAFM 231556Z AUTO 00000KT 10SM CLR 06/01 A2969 RMK AO2 SLP070 T00610011
PAFM 231456Z AUTO 26003KT 10SM CLR 06/01 A2969 RMK AO2 SLP068 T00560011 52001
PAFM 231356Z AUTO VRB04KT 10SM FEW070 05/01 A2969 RMK AO2 SLP067 T00500006
PAFM 231256Z AUTO VRB05KT 10SM FEW070 07/01 A2968 RMK AO2 SLP067 T00670006
PAFM 231156Z AUTO 33005KT 10SM OVC060 08/01 A2968 RMK AO2 SLP066 T00780006 10106 20072 56003
PAFM 231056Z AUTO 34005KT 10SM BKN090 OVC110 08/01 A2969 RMK AO2 SLP067 T00830011
PAFM 230956Z AUTO 00000KT 10SM OVC100 08/01 A2969 RMK AO2 SLP068 T00830011
PAFM 230856Z AUTO 00000KT 10SM SCT120 08/01 A2969 RMK AO2 SLP070 T00830011 53004
PAFM 230756Z AUTO 34003KT 10SM CLR 09/02 A2969 RMK AO2 SLP067 T00940017 401440033
PAFM 230656Z AUTO 31007KT 10SM CLR 09/02 A2969 RMK AO2 SLP066 T00890017
PAFM 230556Z AUTO 33005KT 10SM CLR 11/02 A2968 RMK AO2 SLP066 T01060017 10144 20106 55003
PAFM 230456Z AUTO 01007KT 10SM SCT120 12/02 A2968 RMK AO2 SLP065 T01170017
PAFM 230356Z AUTO 35006KT 10SM CLR 12/02 A2969 RMK AO2 SLP068 T01220017